Latest Weather Observations for Gabo Island

IDV60801

Issued at 11:05 am EDT Saturday 29 November 2014 (issued every 30 minutes, with the page automatically refreshed every 10 minutes)

About weather observations | Map of weather stations | Latest weather observations for VIC | Other Formats
Station Details ID: 084016 Name: GABO ISLAND LIGHTHOUSE Lat: -37.57 Lon: 149.92 Height: 15.2 m
Data from the previous 72 hours. | See also: Recent months at Gabo Island
Date/Time
EDT
Temp
°C
App
Temp
°C
Dew
Point
Rel
Hum
%
Delta-T
°C
Wind Press
QNH
hPa
Press
MSL
hPa
Rain
since 9 am
mm
Dir
 
Spd
km/h
Gust
km/h
Spd
kts
Gust
kts
29/11:00am 21.3 16.9 15.2 68 3.6 NE 32 41 17 22 1016.2 - 0.0
29/10:30am 21.3 16.0 14.1 63 4.2 NNE 35 43 19 23 1016.4 - 0.0
29/10:00am 20.8 15.1 14.3 66 3.8 NNE 37 44 20 24 1016.6 - 0.0
29/09:30am 20.3 15.0 14.1 67 3.6 NNE 35 44 19 24 1016.7 - 0.0
29/09:00am 19.8 14.1 13.1 65 3.8 NNE 35 43 19 23 1016.9 1017.0 0.0
29/08:30am 19.3 13.9 12.9 66 3.6 NNE 33 41 18 22 1017.3 - 0.0
29/08:00am 19.1 14.8 13.3 69 3.3 NNE 28 33 15 18 1017.5 - 0.0
29/07:30am 18.6 16.9 13.5 72 2.9 NNE 15 20 8 11 1017.9 - 0.0
29/07:00am 17.7 17.0 13.3 75 2.5 NNE 9 13 5 7 1017.8 - 0.0
29/06:30am 16.9 15.1 12.2 74 2.6 N 13 19 7 10 1017.7 - 0.0
29/06:00am 16.6 14.1 13.6 82 1.7 NNE 19 24 10 13 1017.3 1017.2 0.0
29/05:30am 16.7 13.7 13.7 82 1.7 NNE 22 28 12 15 1016.9 - 0.0
29/05:00am 16.6 15.6 13.4 81 1.8 NNE 11 15 6 8 1017.2 - 0.0
29/04:30am 16.7 14.2 13.5 81 1.8 NNE 19 22 10 12 1017.0 - 0.0
29/04:00am 16.6 15.0 13.8 83 1.6 NNE 15 20 8 11 1017.0 - 0.0
29/03:30am 16.1 15.3 13.0 82 1.7 NNE 9 15 5 8 1017.6 - 0.0
29/03:00am 15.6 14.9 13.1 85 1.4 N 9 15 5 8 1017.8 1017.8 0.0
29/02:30am 15.4 14.5 12.7 84 1.5 NNE 9 13 5 7 1018.2 - 0.0
29/02:00am 15.4 14.9 12.7 84 1.5 N 7 11 4 6 1018.5 - 0.0
29/01:30am 15.7 14.5 12.8 83 1.6 N 11 15 6 8 1019.0 - 0.0
29/01:00am 15.8 14.6 12.9 83 1.6 N 11 13 6 7 1019.5 - 0.0
29/12:30am 16.5 14.9 12.9 79 2.0 N 13 19 7 10 1019.7 - 0.0
29/12:00am 16.6 13.9 13.0 79 2.0 NNE 19 22 10 12 1019.9 1020.0 0.0
 
Date/Time
EDT
Temp
°C
App
Temp
°C
Dew
Point
Rel
Hum
%
Delta-T
°C
Wind Press
QNH
hPa
Press
MSL
hPa
Rain
since 9 am
mm
Dir
 
Spd
km/h
Gust
km/h
Spd
kts
Gust
kts
28/11:30pm 16.4 14.1 13.0 80 1.9 NNE 17 22 9 12 1020.1 - 0.0
28/11:00pm 16.3 13.5 12.7 79 2.0 NNE 19 22 10 12 1020.2 - 0.0
28/10:30pm 16.3 13.5 12.7 79 2.0 NNE 19 22 10 12 1020.4 - 0.0
28/10:00pm 16.8 14.4 12.8 77 2.2 NNE 17 20 9 11 1020.5 - 0.0
28/09:30pm 17.5 14.8 13.4 77 2.3 NNE 20 24 11 13 1020.4 - 0.0
28/09:00pm 17.7 14.4 12.7 72 2.8 NE 22 28 12 15 1020.3 1020.3 0.0
28/08:30pm 17.8 13.9 12.2 70 3.1 NNE 24 28 13 15 1020.2 - 0.0
28/08:00pm 18.0 13.2 11.6 66 3.5 NNE 28 33 15 18 1020.0 - 0.0
28/07:30pm 18.4 12.6 11.6 64 3.7 NNE 33 41 18 22 1019.6 - 0.0
28/07:00pm 18.6 12.0 11.2 62 4.0 NNE 37 44 20 24 1019.4 - 0.0
28/06:30pm 18.8 13.1 11.9 64 3.8 NE 33 43 18 23 1019.5 - 0.0
28/06:00pm 18.9 12.8 11.8 63 3.9 NE 35 41 19 22 1019.5 1019.5 0.0
28/05:30pm 19.0 12.4 11.5 61 4.1 NE 37 46 20 25 1019.6 - 0.0
28/05:00pm 19.0 12.6 12.1 64 3.8 NE 37 43 20 23 1019.8 - 0.0
28/04:30pm 19.1 12.7 12.1 64 3.9 NE 37 44 20 24 1019.9 - 0.0
28/04:00pm 19.3 12.5 12.1 63 4.0 NE 39 44 21 24 1020.1 - 0.0
28/03:30pm 19.5 13.1 11.9 61 4.2 NE 37 43 20 23 1020.4 - 0.0
28/03:00pm 19.6 13.3 11.2 58 4.6 NE 35 41 19 22 1020.7 1020.7 0.0
28/02:30pm 19.3 13.4 12.3 64 3.9 NE 35 39 19 21 1020.9 - 0.0
28/02:00pm 19.6 13.3 12.2 62 4.1 NE 37 41 20 22 1021.3 - 0.0
28/01:30pm 19.5 13.6 11.3 59 4.5 NE 33 39 18 21 1021.6 - 0.0
28/01:00pm 19.4 13.3 11.6 60 4.3 NE 35 39 19 21 1022.1 - 0.0
28/12:30pm 19.0 13.3 11.7 62 4.0 NE 33 39 18 21 1022.3 - 0.0
28/12:00pm 19.0 13.5 11.7 62 4.0 NE 32 35 17 19 1022.5 1022.6 0.0
28/11:30am 18.6 13.9 12.1 66 3.6 ENE 28 32 15 17 1022.8 - 0.0
28/11:00am 18.3 14.9 12.5 69 3.2 ENE 22 26 12 14 1023.1 - 0.0
28/10:30am 18.2 14.4 12.4 69 3.2 ENE 24 28 13 15 1023.2 - 0.0
28/10:00am 17.6 13.6 11.9 69 3.1 ENE 24 26 13 14 1023.3 - 0.0
28/09:30am 17.6 14.5 12.3 71 2.9 ENE 20 22 11 12 1023.5 - 0.0
28/09:00am 17.2 14.6 11.9 71 2.9 ENE 17 20 9 11 1023.8 1023.8 0.0
28/08:30am 17.1 14.9 12.2 73 2.7 NNE 15 17 8 9 1023.8 - 0.0
28/08:00am 16.6 14.7 11.8 73 2.6 NNE 13 15 7 8 1023.7 - 0.0
28/07:30am 15.0 14.2 11.8 81 1.7 NE 7 9 4 5 1023.5 - 0.0
28/07:00am 14.3 13.6 11.3 82 1.6 NNE 6 7 3 4 1023.3 - 0.0
28/06:30am 13.1 13.5 11.4 89 0.9 CALM 0 0 0 0 1023.1 - 0.0
28/06:00am 12.9 13.3 11.4 91 0.8 CALM 0 0 0 0 1023.0 1022.9 0.0
28/05:30am 12.6 12.9 10.9 89 0.9 CALM 0 0 0 0 1023.0 - 0.0
28/05:00am 12.2 12.4 10.5 89 0.9 CALM 0 0 0 0 1022.7 - 0.0
28/04:30am 13.2 12.4 11.1 87 1.1 W 6 7 3 4 1022.5 - 0.0
28/04:00am 12.8 11.3 10.7 87 1.1 WNW 9 11 5 6 1022.7 - 0.0
28/03:30am 12.9 10.6 10.6 86 1.2 WNW 13 15 7 8 1022.9 - 0.0
28/03:00am 13.1 10.5 10.6 85 1.3 NW 15 17 8 9 1022.9 1023.0 0.0
28/02:30am 12.9 10.3 10.6 86 1.2 NW 15 19 8 10 1023.1 - 0.0
28/02:00am 13.0 9.9 10.3 84 1.4 NW 17 22 9 12 1023.5 - 0.0
28/01:30am 13.0 10.1 11.1 88 1.0 NW 17 20 9 11 1023.7 - 0.0
28/01:00am 13.4 10.4 10.7 84 1.4 WNW 17 20 9 11 1024.0 - 0.0
28/12:30am 13.2 10.7 11.1 87 1.1 WNW 15 20 8 11 1024.3 - 0.0
28/12:00am 13.4 10.9 11.1 86 1.2 NW 15 17 8 9 1024.4 1024.4 0.0
 
Date/Time
EDT
Temp
°C
App
Temp
°C
Dew
Point
Rel
Hum
%
Delta-T
°C
Wind Press
QNH
hPa
Press
MSL
hPa
Rain
since 9 am
mm
Dir
 
Spd
km/h
Gust
km/h
Spd
kts
Gust
kts
27/11:30pm 13.5 11.0 11.2 86 1.2 NW 15 17 8 9 1024.6 - 0.0
27/11:00pm 13.6 11.6 11.5 87 1.1 NW 13 17 7 9 1024.8 - 0.0
27/10:30pm 13.9 11.9 11.4 85 1.3 NW 13 17 7 9 1025.0 - 0.0
27/10:00pm 14.0 12.4 11.4 84 1.4 NW 11 15 6 8 1025.0 - 0.0
27/09:30pm 15.1 12.4 11.7 80 1.8 W 17 20 9 11 1024.8 - 0.0
27/09:00pm 15.4 12.8 11.9 79 1.9 SW 17 20 9 11 1024.6 1024.6 0.0
27/08:30pm 15.6 12.3 11.5 76 2.2 SW 20 24 11 13 1024.4 - 0.0
27/08:00pm 15.7 11.5 11.2 74 2.4 SW 24 30 13 16 1024.4 - 0.0
27/07:30pm 16.0 11.4 10.9 72 2.7 SSW 26 30 14 16 1024.3 - 0.0
27/07:00pm 16.2 11.3 11.4 73 2.6 SSW 28 33 15 18 1024.0 - 0.0
27/06:30pm 16.1 10.3 10.8 71 2.8 SSW 32 37 17 20 1023.6 - 0.0
27/06:00pm 16.3 9.6 11.1 71 2.8 SSW 37 41 20 22 1023.4 1023.4 0.0
27/05:30pm 16.2 8.7 10.7 70 2.9 SSW 41 44 22 24 1023.4 - 0.0
27/05:00pm 16.4 9.2 10.5 68 3.1 SSW 39 44 21 24 1023.3 - 0.0
27/04:30pm 16.3 8.3 10.4 68 3.1 SSW 43 48 23 26 1023.2 - 0.0
27/04:00pm 16.4 8.3 10.1 66 3.3 SSW 43 50 23 27 1023.4 - 0.0
27/03:30pm 16.1 7.3 9.5 65 3.4 SSW 46 56 25 30 1023.5 - 0.0
27/03:00pm 16.0 6.5 9.9 67 3.2 SSW 50 56 27 30 1023.5 1023.5 0.0
27/02:30pm 16.1 6.8 9.3 64 3.5 SSW 48 54 26 29 1023.5 - 0.0
27/02:00pm 15.9 6.6 9.3 65 3.4 SSW 48 56 26 30 1023.5 - 0.0
27/01:30pm 15.6 5.7 8.2 61 3.7 SSW 50 57 27 31 1023.5 - 0.0
27/01:00pm 16.1 6.8 9.3 64 3.5 SSW 48 56 26 30 1023.6 - 0.0
27/12:30pm 15.8 7.0 8.0 60 3.9 SW 44 50 24 27 1023.6 - 0.0
27/12:00pm 16.0 7.3 8.3 60 3.9 SSW 44 52 24 28 1023.6 1023.7 0.0
27/11:30am 16.0 7.3 7.8 58 4.1 SSW 43 50 23 27 1023.7 - 0.0
27/11:00am 16.4 8.9 7.8 56 4.3 SW 37 44 20 24 1023.9 - 0.0
27/10:30am 16.9 10.1 6.7 51 5.0 WSW 32 41 17 22 1024.0 - 0.0
27/10:00am 16.6 9.4 7.6 55 4.5 WSW 35 48 19 26 1024.1 - 0.0
27/09:30am 16.4 9.5 7.1 54 4.6 WSW 33 43 18 23 1024.0 - 0.0
27/09:00am 15.3 8.4 7.1 58 4.0 WSW 33 41 18 22 1024.1 1024.2 0.0
27/08:30am 14.9 8.0 7.4 61 3.7 WSW 33 43 18 23 1024.1 - 0.0
27/08:00am 14.4 7.6 7.5 63 3.4 W 33 43 18 23 1023.8 - 0.0
27/07:30am 14.0 7.9 8.2 68 2.9 W 30 37 16 20 1023.5 - 0.0
27/07:00am 14.2 8.4 7.9 66 3.1 W 28 44 15 24 1023.1 - 0.0
27/06:30am 14.4 7.1 7.2 62 3.5 WSW 35 43 19 23 1022.7 - 0.0
27/06:00am 14.1 8.4 8.3 68 2.9 W 28 35 15 19 1022.5 1022.5 0.0
27/05:30am 14.6 7.5 8.2 65 3.2 WSW 35 43 19 23 1022.2 - 0.0
27/05:00am 14.3 7.6 8.3 67 3.0 WSW 33 46 18 25 1021.9 - 0.0
27/04:30am 14.6 7.6 8.6 67 3.0 WSW 35 46 19 25 1021.6 - 0.0
27/04:00am 14.4 8.1 9.1 70 2.7 WSW 32 41 17 22 1021.5 - 0.0
27/03:30am 14.9 8.0 9.0 68 3.0 WSW 35 44 19 24 1021.5 - 0.0
27/03:00am 14.7 7.9 9.2 69 2.8 WSW 35 43 19 23 1021.6 1021.6 0.0
27/02:30am 15.1 7.5 9.2 68 3.0 SW 39 50 21 27 1021.6 - 0.0
27/02:00am 14.9 6.4 8.5 65 3.2 SW 43 54 23 29 1021.7 - 0.0
27/01:30am 15.0 6.6 9.1 68 3.0 SW 43 52 23 28 1021.8 - 0.0
27/01:00am 15.0 6.2 9.6 70 2.8 SW 46 56 25 30 1022.0 - 0.0
27/12:30am 15.4 9.3 10.4 72 2.6 WSW 33 43 18 23 1022.2 - 0.0
27/12:00am 15.3 8.5 10.5 73 2.5 WSW 37 46 20 25 1022.1 1022.1 0.0
 
Date/Time
EDT
Temp
°C
App
Temp
°C
Dew
Point
Rel
Hum
%
Delta-T
°C
Wind Press
QNH
hPa
Press
MSL
hPa
Rain
since 9 am
mm
Dir
 
Spd
km/h
Gust
km/h
Spd
kts
Gust
kts
26/11:30pm 15.6 9.7 10.3 70 2.8 WSW 32 37 17 20 1022.1 - 0.0
26/11:00pm 15.5 9.6 10.6 72 2.6 WSW 32 43 17 23 1022.1 - 0.0
26/10:30pm 15.5 9.7 10.8 73 2.5 WSW 32 39 17 21 1022.0 - 0.0
26/10:00pm 15.8 10.0 10.7 71 2.7 WSW 32 41 17 22 1021.8 - 0.0
26/09:30pm 15.8 10.5 11.3 74 2.4 WSW 30 39 16 21 1021.6 - 0.0
26/09:00pm 15.8 10.2 11.5 75 2.3 WSW 32 43 17 23 1021.3 1021.2 0.0
26/08:30pm 16.1 9.8 12.3 78 2.1 SW 37 48 20 26 1020.8 - 0.0
26/08:00pm 15.9 9.2 12.4 80 1.9 SW 39 46 21 25 1020.6 - 0.0
26/07:30pm 16.2 8.8 12.4 78 2.1 SW 43 52 23 28 1020.4 - 0.0
26/07:00pm 16.6 9.2 12.4 76 2.3 SW 43 50 23 27 1019.8 - 0.0
26/06:30pm 16.8 9.5 11.6 71 2.8 SW 41 50 22 27 1019.4 - 0.0
26/06:00pm 16.7 8.8 10.7 67 3.2 SW 43 48 23 26 1019.1 1019.1 0.0
26/05:30pm 17.0 9.6 11.2 68 3.1 SW 41 46 22 25 1019.1 - 0.0
26/05:00pm 16.9 10.1 10.7 67 3.3 SW 37 43 20 23 1019.2 - 0.0
26/04:30pm 17.1 8.8 10.1 63 3.7 SSW 44 52 24 28 1019.1 - 0.0
26/04:00pm 17.0 8.2 10.8 67 3.3 SW 48 56 26 30 1018.9 - 0.0
26/03:30pm 17.0 7.7 10.4 65 3.5 SSW 50 57 27 31 1018.8 - 0.0
26/03:00pm 16.8 7.2 9.5 62 3.8 SSW 50 57 27 31 1018.8 1018.7 0.0
26/02:30pm 16.9 7.5 10.1 64 3.6 SSW 50 57 27 31 1018.8 - 0.0
26/02:00pm 16.7 7.6 9.8 63 3.6 SSW 48 59 26 32 1018.8 - 0.0
26/01:30pm 16.8 6.8 9.3 61 3.9 SSW 52 59 28 32 1018.7 - 0.0
26/01:00pm 16.6 7.0 9.5 63 3.7 SSW 50 57 27 31 1018.8 - 0.0
26/12:30pm 16.5 8.2 10.2 66 3.3 SSW 44 54 24 29 1019.0 - 0.0
26/12:00pm 16.5 8.5 10.5 67 3.2 SSW 43 52 23 28 1019.1 1019.1 0.0
26/11:30am 16.4 9.1 10.3 67 3.2 SSW 39 44 21 24 1019.2 - 0.0

Other Formats:

Comma delimited format used in spreadsheet applications
http://www.bom.gov.au/fwo/IDV60801/IDV60801.94933.axf

JavaScript Object Notation format (JSON) in row-major order
http://www.bom.gov.au/fwo/IDV60801/IDV60801.94933.json